sensor_id;sensor_type;location;lat;lon;timestamp;temperature;humidity
18041;DHT22;9145;48.588;9.250;2022-12-26T00:01:24;10.20;99.90
18041;DHT22;9145;48.588;9.250;2022-12-26T00:03:52;10.20;99.90
18041;DHT22;9145;48.588;9.250;2022-12-26T00:06:20;10.20;99.90
18041;DHT22;9145;48.588;9.250;2022-12-26T00:08:47;10.30;99.90
18041;DHT22;9145;48.588;9.250;2022-12-26T00:11:14;10.40;99.90
18041;DHT22;9145;48.588;9.250;2022-12-26T00:13:43;10.40;99.90
18041;DHT22;9145;48.588;9.250;2022-12-26T00:16:13;10.40;99.90
18041;DHT22;9145;48.588;9.250;2022-12-26T00:18:41;10.40;99.90
18041;DHT22;9145;48.588;9.250;2022-12-26T00:21:09;10.40;99.90
18041;DHT22;9145;48.588;9.250;2022-12-26T00:23:37;10.40;99.90
18041;DHT22;9145;48.588;9.250;2022-12-26T00:26:05;10.40;99.90
18041;DHT22;9145;48.588;9.250;2022-12-26T00:28:32;10.30;99.90
18041;DHT22;9145;48.588;9.250;2022-12-26T00:31:03;10.20;99.90
18041;DHT22;9145;48.588;9.250;2022-12-26T00:33:30;10.20;99.90
18041;DHT22;9145;48.588;9.250;2022-12-26T00:36:00;10.10;99.90
18041;DHT22;9145;48.588;9.250;2022-12-26T00:38:28;10.00;99.90
18041;DHT22;9145;48.588;9.250;2022-12-26T00:40:54;9.90;99.90
18041;DHT22;9145;48.588;9.250;2022-12-26T00:43:21;9.80;99.90
18041;DHT22;9145;48.588;9.250;2022-12-26T00:45:48;9.80;99.90
18041;DHT22;9145;48.588;9.250;2022-12-26T00:48:16;9.70;99.90
18041;DHT22;9145;48.588;9.250;2022-12-26T00:50:43;9.70;99.90
18041;DHT22;9145;48.588;9.250;2022-12-26T00:53:10;9.60;99.90
18041;DHT22;9145;48.588;9.250;2022-12-26T00:55:37;9.60;99.90
18041;DHT22;9145;48.588;9.250;2022-12-26T00:58:04;9.60;99.90
18041;DHT22;9145;48.588;9.250;2022-12-26T01:00:31;9.60;99.90
18041;DHT22;9145;48.588;9.250;2022-12-26T01:02:58;9.70;99.90
18041;DHT22;9145;48.588;9.250;2022-12-26T01:05:26;9.70;99.90
18041;DHT22;9145;48.588;9.250;2022-12-26T01:07:53;9.70;99.90
18041;DHT22;9145;48.588;9.250;2022-12-26T01:10:20;9.80;99.90
18041;DHT22;9145;48.588;9.250;2022-12-26T01:12:47;9.80;99.90
18041;DHT22;9145;48.588;9.250;2022-12-26T01:15:14;9.90;99.90
18041;DHT22;9145;48.588;9.250;2022-12-26T01:17:41;9.90;99.90
18041;DHT22;9145;48.588;9.250;2022-12-26T01:20:08;10.00;99.90
18041;DHT22;9145;48.588;9.250;2022-12-26T01:22:37;10.00;99.90
18041;DHT22;9145;48.588;9.250;2022-12-26T01:25:04;10.00;99.90
18041;DHT22;9145;48.588;9.250;2022-12-26T01:27:31;10.00;99.90
18041;DHT22;9145;48.588;9.250;2022-12-26T01:29:58;10.00;99.90
18041;DHT22;9145;48.588;9.250;2022-12-26T01:32:25;10.00;99.90
18041;DHT22;9145;48.588;9.250;2022-12-26T01:34:52;10.00;99.90
18041;DHT22;9145;48.588;9.250;2022-12-26T01:37:20;10.10;99.90
18041;DHT22;9145;48.588;9.250;2022-12-26T01:39:50;10.10;99.90
18041;DHT22;9145;48.588;9.250;2022-12-26T01:42:19;10.20;99.90
18041;DHT22;9145;48.588;9.250;2022-12-26T01:45:00;10.20;99.90
18041;DHT22;9145;48.588;9.250;2022-12-26T01:47:36;10.20;99.90
18041;DHT22;9145;48.588;9.250;2022-12-26T01:50:23;10.20;99.90
18041;DHT22;9145;48.588;9.250;2022-12-26T01:52:51;10.20;99.90
18041;DHT22;9145;48.588;9.250;2022-12-26T01:55:21;10.20;99.90
18041;DHT22;9145;48.588;9.250;2022-12-26T01:57:51;10.20;99.90
18041;DHT22;9145;48.588;9.250;2022-12-26T02:00:24;10.20;99.90
18041;DHT22;9145;48.588;9.250;2022-12-26T02:02:52;10.10;99.90
18041;DHT22;9145;48.588;9.250;2022-12-26T02:05:37;10.10;99.90
18041;DHT22;9145;48.588;9.250;2022-12-26T02:08:08;10.10;99.90
18041;DHT22;9145;48.588;9.250;2022-12-26T02:10:44;10.20;99.90
18041;DHT22;9145;48.588;9.250;2022-12-26T02:13:13;10.10;99.90
18041;DHT22;9145;48.588;9.250;2022-12-26T02:15:41;10.10;99.90
18041;DHT22;9145;48.588;9.250;2022-12-26T02:18:07;10.10;99.90
18041;DHT22;9145;48.588;9.250;2022-12-26T02:20:41;10.10;99.90
18041;DHT22;9145;48.588;9.250;2022-12-26T02:23:49;10.00;99.90
18041;DHT22;9145;48.588;9.250;2022-12-26T02:26:52;10.00;99.90
18041;DHT22;9145;48.588;9.250;2022-12-26T02:30:00;9.80;99.90
18041;DHT22;9145;48.588;9.250;2022-12-26T02:35:35;9.50;99.90
18041;DHT22;9145;48.588;9.250;2022-12-26T02:38:17;9.10;99.90
18041;DHT22;9145;48.588;9.250;2022-12-26T02:40:55;9.00;99.90
18041;DHT22;9145;48.588;9.250;2022-12-26T02:43:35;8.90;99.90
18041;DHT22;9145;48.588;9.250;2022-12-26T02:46:08;8.80;99.90
18041;DHT22;9145;48.588;9.250;2022-12-26T02:49:00;8.70;99.90
18041;DHT22;9145;48.588;9.250;2022-12-26T02:51:43;8.80;99.90
18041;DHT22;9145;48.588;9.250;2022-12-26T02:54:37;8.80;99.90
18041;DHT22;9145;48.588;9.250;2022-12-26T02:57:30;8.90;99.90
18041;DHT22;9145;48.588;9.250;2022-12-26T03:00:19;8.90;99.90
18041;DHT22;9145;48.588;9.250;2022-12-26T03:03:08;8.90;99.90
18041;DHT22;9145;48.588;9.250;2022-12-26T03:05:57;8.90;99.90
18041;DHT22;9145;48.588;9.250;2022-12-26T03:08:51;9.00;99.90
18041;DHT22;9145;48.588;9.250;2022-12-26T03:11:38;9.00;99.90
18041;DHT22;9145;48.588;9.250;2022-12-26T03:14:26;9.00;99.90
18041;DHT22;9145;48.588;9.250;2022-12-26T03:16:59;9.00;99.90
18041;DHT22;9145;48.588;9.250;2022-12-26T03:19:46;9.10;99.90
18041;DHT22;9145;48.588;9.250;2022-12-26T03:22:32;9.10;99.90
18041;DHT22;9145;48.588;9.250;2022-12-26T03:25:02;9.10;99.90
18041;DHT22;9145;48.588;9.250;2022-12-26T03:27:47;9.10;99.90
18041;DHT22;9145;48.588;9.250;2022-12-26T03:30:14;9.20;99.90
18041;DHT22;9145;48.588;9.250;2022-12-26T03:33:07;9.10;99.90
18041;DHT22;9145;48.588;9.250;2022-12-26T03:35:55;9.20;99.90
18041;DHT22;9145;48.588;9.250;2022-12-26T03:38:26;9.30;99.90
18041;DHT22;9145;48.588;9.250;2022-12-26T03:41:01;9.30;99.90
18041;DHT22;9145;48.588;9.250;2022-12-26T03:43:58;9.30;99.90
18041;DHT22;9145;48.588;9.250;2022-12-26T03:46:53;9.40;99.90
18041;DHT22;9145;48.588;9.250;2022-12-26T03:49:45;9.30;99.90
18041;DHT22;9145;48.588;9.250;2022-12-26T03:52:39;9.40;99.90
18041;DHT22;9145;48.588;9.250;2022-12-26T03:55:33;9.30;99.90
18041;DHT22;9145;48.588;9.250;2022-12-26T03:58:24;9.20;99.90
18041;DHT22;9145;48.588;9.250;2022-12-26T04:01:14;9.10;99.90
18041;DHT22;9145;48.588;9.250;2022-12-26T04:04:00;9.10;99.90
18041;DHT22;9145;48.588;9.250;2022-12-26T04:06:49;9.20;99.90
18041;DHT22;9145;48.588;9.250;2022-12-26T04:09:38;9.10;99.90
18041;DHT22;9145;48.588;9.250;2022-12-26T04:12:27;9.00;99.90
18041;DHT22;9145;48.588;9.250;2022-12-26T04:15:18;9.00;99.90
18041;DHT22;9145;48.588;9.250;2022-12-26T04:18:06;9.10;99.90
18041;DHT22;9145;48.588;9.250;2022-12-26T04:21:03;9.20;99.90
18041;DHT22;9145;48.588;9.250;2022-12-26T04:23:36;9.30;99.90
18041;DHT22;9145;48.588;9.250;2022-12-26T04:26:29;9.40;99.90
18041;DHT22;9145;48.588;9.250;2022-12-26T04:29:16;9.40;99.90
18041;DHT22;9145;48.588;9.250;2022-12-26T04:32:03;9.50;99.90
18041;DHT22;9145;48.588;9.250;2022-12-26T04:34:59;9.50;99.90
18041;DHT22;9145;48.588;9.250;2022-12-26T04:37:45;9.60;99.90
18041;DHT22;9145;48.588;9.250;2022-12-26T04:40:35;9.70;99.90
18041;DHT22;9145;48.588;9.250;2022-12-26T04:43:21;9.70;99.90
18041;DHT22;9145;48.588;9.250;2022-12-26T04:46:08;9.80;99.90
18041;DHT22;9145;48.588;9.250;2022-12-26T04:48:41;9.80;99.90
18041;DHT22;9145;48.588;9.250;2022-12-26T04:51:26;9.80;99.90
18041;DHT22;9145;48.588;9.250;2022-12-26T04:53:53;9.70;99.90
18041;DHT22;9145;48.588;9.250;2022-12-26T04:56:20;9.70;99.90
18041;DHT22;9145;48.588;9.250;2022-12-26T04:58:46;9.80;99.90
18041;DHT22;9145;48.588;9.250;2022-12-26T05:01:15;9.90;99.90
18041;DHT22;9145;48.588;9.250;2022-12-26T05:03:59;9.90;99.90
18041;DHT22;9145;48.588;9.250;2022-12-26T05:06:43;9.90;99.90
18041;DHT22;9145;48.588;9.250;2022-12-26T05:09:28;9.80;99.90
18041;DHT22;9145;48.588;9.250;2022-12-26T05:12:00;9.80;99.90
18041;DHT22;9145;48.588;9.250;2022-12-26T05:14:27;9.90;99.90
18041;DHT22;9145;48.588;9.250;2022-12-26T05:16:57;10.00;99.90
18041;DHT22;9145;48.588;9.250;2022-12-26T05:19:42;10.00;99.90
18041;DHT22;9145;48.588;9.250;2022-12-26T05:22:29;10.10;99.90
18041;DHT22;9145;48.588;9.250;2022-12-26T05:25:17;10.20;99.90
18041;DHT22;9145;48.588;9.250;2022-12-26T05:28:03;10.20;99.90
18041;DHT22;9145;48.588;9.250;2022-12-26T05:30:47;10.30;99.90
18041;DHT22;9145;48.588;9.250;2022-12-26T05:33:15;10.40;99.90
18041;DHT22;9145;48.588;9.250;2022-12-26T05:35:59;10.50;99.90
18041;DHT22;9145;48.588;9.250;2022-12-26T05:38:26;10.50;99.90
18041;DHT22;9145;48.588;9.250;2022-12-26T05:40:53;10.60;99.90
18041;DHT22;9145;48.588;9.250;2022-12-26T05:43:20;10.60;99.90
18041;DHT22;9145;48.588;9.250;2022-12-26T05:45:47;10.60;99.90
18041;DHT22;9145;48.588;9.250;2022-12-26T05:48:15;10.60;99.90
18041;DHT22;9145;48.588;9.250;2022-12-26T05:50:42;10.50;99.90
18041;DHT22;9145;48.588;9.250;2022-12-26T05:53:08;10.40;99.90
18041;DHT22;9145;48.588;9.250;2022-12-26T05:55:35;10.40;99.90
18041;DHT22;9145;48.588;9.250;2022-12-26T05:58:02;10.30;99.90
18041;DHT22;9145;48.588;9.250;2022-12-26T06:00:30;10.20;99.90
18041;DHT22;9145;48.588;9.250;2022-12-26T06:02:58;10.20;99.90
18041;DHT22;9145;48.588;9.250;2022-12-26T06:05:28;10.20;99.90
18041;DHT22;9145;48.588;9.250;2022-12-26T06:07:54;10.30;99.90
18041;DHT22;9145;48.588;9.250;2022-12-26T06:10:21;10.30;99.90
18041;DHT22;9145;48.588;9.250;2022-12-26T06:12:50;10.40;99.90
18041;DHT22;9145;48.588;9.250;2022-12-26T06:15:17;10.50;99.90
18041;DHT22;9145;48.588;9.250;2022-12-26T06:17:44;10.50;99.90
18041;DHT22;9145;48.588;9.250;2022-12-26T06:20:11;10.50;99.90
18041;DHT22;9145;48.588;9.250;2022-12-26T06:22:39;10.60;99.90
18041;DHT22;9145;48.588;9.250;2022-12-26T06:25:07;10.60;99.90
18041;DHT22;9145;48.588;9.250;2022-12-26T06:27:33;10.70;99.90
18041;DHT22;9145;48.588;9.250;2022-12-26T06:30:00;10.70;99.90
18041;DHT22;9145;48.588;9.250;2022-12-26T06:32:27;10.70;99.90
18041;DHT22;9145;48.588;9.250;2022-12-26T06:34:55;10.70;99.90
18041;DHT22;9145;48.588;9.250;2022-12-26T06:37:21;10.70;99.90
18041;DHT22;9145;48.588;9.250;2022-12-26T06:39:50;10.70;99.90
18041;DHT22;9145;48.588;9.250;2022-12-26T06:42:16;10.70;99.90
18041;DHT22;9145;48.588;9.250;2022-12-26T06:44:43;10.70;99.90
18041;DHT22;9145;48.588;9.250;2022-12-26T06:47:10;10.60;99.90
18041;DHT22;9145;48.588;9.250;2022-12-26T06:49:37;10.70;99.90
18041;DHT22;9145;48.588;9.250;2022-12-26T06:52:04;10.70;99.90
18041;DHT22;9145;48.588;9.250;2022-12-26T06:54:30;10.70;99.90
18041;DHT22;9145;48.588;9.250;2022-12-26T06:56:59;10.70;99.90
18041;DHT22;9145;48.588;9.250;2022-12-26T06:59:25;10.70;99.90
18041;DHT22;9145;48.588;9.250;2022-12-26T07:01:52;10.70;99.90
18041;DHT22;9145;48.588;9.250;2022-12-26T07:04:19;10.70;99.90
18041;DHT22;9145;48.588;9.250;2022-12-26T07:06:46;10.70;99.90
18041;DHT22;9145;48.588;9.250;2022-12-26T07:09:15;10.70;99.90
18041;DHT22;9145;48.588;9.250;2022-12-26T07:11:43;10.60;99.90
18041;DHT22;9145;48.588;9.250;2022-12-26T07:14:12;10.50;99.90
18041;DHT22;9145;48.588;9.250;2022-12-26T07:16:40;10.50;99.90
18041;DHT22;9145;48.588;9.250;2022-12-26T07:19:09;10.60;99.90
18041;DHT22;9145;48.588;9.250;2022-12-26T07:21:36;10.60;99.90
18041;DHT22;9145;48.588;9.250;2022-12-26T07:24:04;10.60;99.90
18041;DHT22;9145;48.588;9.250;2022-12-26T07:26:31;10.50;99.90
18041;DHT22;9145;48.588;9.250;2022-12-26T07:28:58;10.50;99.90
18041;DHT22;9145;48.588;9.250;2022-12-26T07:31:26;10.50;99.90
18041;DHT22;9145;48.588;9.250;2022-12-26T07:33:55;10.60;99.90
18041;DHT22;9145;48.588;9.250;2022-12-26T07:36:22;10.60;99.90
18041;DHT22;9145;48.588;9.250;2022-12-26T07:38:51;10.70;99.90
18041;DHT22;9145;48.588;9.250;2022-12-26T07:41:18;10.70;99.90
18041;DHT22;9145;48.588;9.250;2022-12-26T07:44:03;10.70;99.90
18041;DHT22;9145;48.588;9.250;2022-12-26T07:46:32;10.50;99.90
18041;DHT22;9145;48.588;9.250;2022-12-26T07:48:59;10.50;99.90
18041;DHT22;9145;48.588;9.250;2022-12-26T07:51:26;10.50;99.90
18041;DHT22;9145;48.588;9.250;2022-12-26T07:53:53;10.60;99.90
18041;DHT22;9145;48.588;9.250;2022-12-26T07:56:20;10.50;99.90
18041;DHT22;9145;48.588;9.250;2022-12-26T07:58:48;10.60;99.90
18041;DHT22;9145;48.588;9.250;2022-12-26T08:01:15;10.60;99.90
18041;DHT22;9145;48.588;9.250;2022-12-26T08:03:43;10.70;99.90
18041;DHT22;9145;48.588;9.250;2022-12-26T08:06:10;10.70;99.90
18041;DHT22;9145;48.588;9.250;2022-12-26T08:08:37;10.70;99.90
18041;DHT22;9145;48.588;9.250;2022-12-26T08:11:06;10.70;99.90
18041;DHT22;9145;48.588;9.250;2022-12-26T08:13:33;10.70;99.90
18041;DHT22;9145;48.588;9.250;2022-12-26T08:16:04;10.70;99.90
18041;DHT22;9145;48.588;9.250;2022-12-26T08:18:32;10.70;99.90
18041;DHT22;9145;48.588;9.250;2022-12-26T08:21:00;10.70;99.90
18041;DHT22;9145;48.588;9.250;2022-12-26T08:23:27;10.70;99.90
18041;DHT22;9145;48.588;9.250;2022-12-26T08:25:57;10.70;99.90
18041;DHT22;9145;48.588;9.250;2022-12-26T08:28:24;10.70;99.90
18041;DHT22;9145;48.588;9.250;2022-12-26T08:30:51;10.80;99.90
18041;DHT22;9145;48.588;9.250;2022-12-26T08:33:18;10.80;99.90
18041;DHT22;9145;48.588;9.250;2022-12-26T08:35:46;10.70;99.90
18041;DHT22;9145;48.588;9.250;2022-12-26T08:38:14;10.70;99.90
18041;DHT22;9145;48.588;9.250;2022-12-26T08:40:41;10.70;99.90
18041;DHT22;9145;48.588;9.250;2022-12-26T08:43:07;10.70;99.90
18041;DHT22;9145;48.588;9.250;2022-12-26T08:45:34;10.70;99.90
18041;DHT22;9145;48.588;9.250;2022-12-26T08:48:01;10.60;99.90
18041;DHT22;9145;48.588;9.250;2022-12-26T08:50:28;10.50;99.90
18041;DHT22;9145;48.588;9.250;2022-12-26T08:52:55;10.40;99.90
18041;DHT22;9145;48.588;9.250;2022-12-26T08:55:23;10.30;99.90
18041;DHT22;9145;48.588;9.250;2022-12-26T08:57:50;10.20;99.90
18041;DHT22;9145;48.588;9.250;2022-12-26T09:00:17;10.20;99.90
18041;DHT22;9145;48.588;9.250;2022-12-26T09:02:48;10.20;99.90
18041;DHT22;9145;48.588;9.250;2022-12-26T09:05:15;10.10;99.90
18041;DHT22;9145;48.588;9.250;2022-12-26T09:07:41;10.00;99.90
18041;DHT22;9145;48.588;9.250;2022-12-26T09:10:09;10.00;99.90
18041;DHT22;9145;48.588;9.250;2022-12-26T09:12:37;9.90;99.90
18041;DHT22;9145;48.588;9.250;2022-12-26T09:15:04;9.80;99.90
18041;DHT22;9145;48.588;9.250;2022-12-26T09:17:31;9.80;99.90
18041;DHT22;9145;48.588;9.250;2022-12-26T09:19:58;9.80;99.90
18041;DHT22;9145;48.588;9.250;2022-12-26T09:22:25;9.80;99.90
18041;DHT22;9145;48.588;9.250;2022-12-26T09:25:09;9.80;99.90
18041;DHT22;9145;48.588;9.250;2022-12-26T09:27:37;9.80;99.90
18041;DHT22;9145;48.588;9.250;2022-12-26T09:30:05;9.80;99.90
18041;DHT22;9145;48.588;9.250;2022-12-26T09:32:32;9.90;99.90
18041;DHT22;9145;48.588;9.250;2022-12-26T09:34:59;10.00;99.90
18041;DHT22;9145;48.588;9.250;2022-12-26T09:37:26;10.00;99.90
18041;DHT22;9145;48.588;9.250;2022-12-26T09:39:53;10.00;99.90
18041;DHT22;9145;48.588;9.250;2022-12-26T09:42:26;9.90;99.90
18041;DHT22;9145;48.588;9.250;2022-12-26T09:45:03;9.80;99.90
18041;DHT22;9145;48.588;9.250;2022-12-26T09:47:33;9.70;99.90
18041;DHT22;9145;48.588;9.250;2022-12-26T09:50:05;9.70;99.90
18041;DHT22;9145;48.588;9.250;2022-12-26T09:52:40;9.70;99.90
18041;DHT22;9145;48.588;9.250;2022-12-26T09:55:24;9.70;99.90
18041;DHT22;9145;48.588;9.250;2022-12-26T09:57:55;9.70;99.90
18041;DHT22;9145;48.588;9.250;2022-12-26T10:00:28;9.70;99.90
18041;DHT22;9145;48.588;9.250;2022-12-26T10:02:57;9.80;99.90
18041;DHT22;9145;48.588;9.250;2022-12-26T10:05:27;9.80;99.90
18041;DHT22;9145;48.588;9.250;2022-12-26T10:07:58;9.80;99.90
18041;DHT22;9145;48.588;9.250;2022-12-26T10:10:30;9.90;99.90
18041;DHT22;9145;48.588;9.250;2022-12-26T10:13:07;9.90;99.90
18041;DHT22;9145;48.588;9.250;2022-12-26T10:15:40;9.90;99.90
18041;DHT22;9145;48.588;9.250;2022-12-26T10:18:19;9.90;99.90
18041;DHT22;9145;48.588;9.250;2022-12-26T10:21:01;9.90;99.90
18041;DHT22;9145;48.588;9.250;2022-12-26T10:23:32;9.90;99.90
18041;DHT22;9145;48.588;9.250;2022-12-26T10:26:05;9.90;99.90
18041;DHT22;9145;48.588;9.250;2022-12-26T10:28:35;9.90;99.90
18041;DHT22;9145;48.588;9.250;2022-12-26T10:31:11;9.90;99.90
18041;DHT22;9145;48.588;9.250;2022-12-26T10:33:44;9.90;99.90
18041;DHT22;9145;48.588;9.250;2022-12-26T10:36:16;9.90;99.90
18041;DHT22;9145;48.588;9.250;2022-12-26T10:38:49;9.90;99.90
18041;DHT22;9145;48.588;9.250;2022-12-26T10:41:22;9.90;99.90
18041;DHT22;9145;48.588;9.250;2022-12-26T10:43:49;10.00;99.90
18041;DHT22;9145;48.588;9.250;2022-12-26T10:49:10;10.00;99.90
18041;DHT22;9145;48.588;9.250;2022-12-26T10:51:38;10.10;99.90
18041;DHT22;9145;48.588;9.250;2022-12-26T10:54:11;10.20;99.90
18041;DHT22;9145;48.588;9.250;2022-12-26T10:56:38;10.20;99.90
18041;DHT22;9145;48.588;9.250;2022-12-26T10:59:10;10.20;99.90
18041;DHT22;9145;48.588;9.250;2022-12-26T11:01:41;10.30;99.90
18041;DHT22;9145;48.588;9.250;2022-12-26T11:04:15;10.20;99.90
18041;DHT22;9145;48.588;9.250;2022-12-26T11:06:43;10.30;99.90
18041;DHT22;9145;48.588;9.250;2022-12-26T11:09:33;10.30;99.90
18041;DHT22;9145;48.588;9.250;2022-12-26T11:12:01;10.30;99.90
18041;DHT22;9145;48.588;9.250;2022-12-26T11:14:32;10.30;99.90
18041;DHT22;9145;48.588;9.250;2022-12-26T11:17:03;10.30;99.90
18041;DHT22;9145;48.588;9.250;2022-12-26T11:19:32;10.40;99.90
18041;DHT22;9145;48.588;9.250;2022-12-26T11:22:22;10.40;99.90
18041;DHT22;9145;48.588;9.250;2022-12-26T11:25:15;10.40;99.90
18041;DHT22;9145;48.588;9.250;2022-12-26T11:27:44;10.40;99.90
18041;DHT22;9145;48.588;9.250;2022-12-26T11:30:18;10.50;99.90
18041;DHT22;9145;48.588;9.250;2022-12-26T11:32:48;10.50;99.90
18041;DHT22;9145;48.588;9.250;2022-12-26T11:35:17;10.40;99.90
18041;DHT22;9145;48.588;9.250;2022-12-26T11:37:45;10.50;99.90
18041;DHT22;9145;48.588;9.250;2022-12-26T11:40:18;10.50;99.90
18041;DHT22;9145;48.588;9.250;2022-12-26T11:42:48;10.50;99.90
18041;DHT22;9145;48.588;9.250;2022-12-26T11:45:21;10.50;99.90
18041;DHT22;9145;48.588;9.250;2022-12-26T11:47:50;10.50;99.90
18041;DHT22;9145;48.588;9.250;2022-12-26T11:50:21;10.50;99.90
18041;DHT22;9145;48.588;9.250;2022-12-26T11:52:51;10.50;99.90
18041;DHT22;9145;48.588;9.250;2022-12-26T11:55:28;10.50;99.90
18041;DHT22;9145;48.588;9.250;2022-12-26T11:57:58;10.50;99.90
18041;DHT22;9145;48.588;9.250;2022-12-26T12:00:27;10.50;99.90
18041;DHT22;9145;48.588;9.250;2022-12-26T12:02:55;10.50;99.90
18041;DHT22;9145;48.588;9.250;2022-12-26T12:05:35;10.50;99.90
18041;DHT22;9145;48.588;9.250;2022-12-26T12:08:29;10.60;99.90
18041;DHT22;9145;48.588;9.250;2022-12-26T12:11:08;10.60;99.90
18041;DHT22;9145;48.588;9.250;2022-12-26T12:13:57;10.60;99.90
18041;DHT22;9145;48.588;9.250;2022-12-26T12:16:41;10.60;99.90
18041;DHT22;9145;48.588;9.250;2022-12-26T12:19:32;10.60;99.90
18041;DHT22;9145;48.588;9.250;2022-12-26T12:22:26;10.60;99.90
18041;DHT22;9145;48.588;9.250;2022-12-26T12:25:13;10.60;99.90
18041;DHT22;9145;48.588;9.250;2022-12-26T12:27:48;10.50;99.90
18041;DHT22;9145;48.588;9.250;2022-12-26T12:30:20;10.40;99.90
18041;DHT22;9145;48.588;9.250;2022-12-26T12:33:04;10.50;99.90
18041;DHT22;9145;48.588;9.250;2022-12-26T12:35:47;10.40;99.90
18041;DHT22;9145;48.588;9.250;2022-12-26T12:38:27;10.40;99.90
18041;DHT22;9145;48.588;9.250;2022-12-26T12:41:14;10.40;99.90
18041;DHT22;9145;48.588;9.250;2022-12-26T12:43:51;10.40;99.90
18041;DHT22;9145;48.588;9.250;2022-12-26T12:46:26;10.40;99.90
18041;DHT22;9145;48.588;9.250;2022-12-26T12:51:58;10.40;99.90
18041;DHT22;9145;48.588;9.250;2022-12-26T12:54:58;10.30;99.90
18041;DHT22;9145;48.588;9.250;2022-12-26T12:57:34;10.40;99.90
18041;DHT22;9145;48.588;9.250;2022-12-26T13:00:13;10.40;99.90
18041;DHT22;9145;48.588;9.250;2022-12-26T13:02:43;10.30;99.90
18041;DHT22;9145;48.588;9.250;2022-12-26T13:05:24;10.30;99.90
18041;DHT22;9145;48.588;9.250;2022-12-26T13:07:57;10.30;99.90
18041;DHT22;9145;48.588;9.250;2022-12-26T13:10:28;10.30;99.90
18041;DHT22;9145;48.588;9.250;2022-12-26T13:12:59;10.30;99.90
18041;DHT22;9145;48.588;9.250;2022-12-26T13:15:31;10.30;99.90
18041;DHT22;9145;48.588;9.250;2022-12-26T13:18:02;10.40;99.90
18041;DHT22;9145;48.588;9.250;2022-12-26T13:20:37;10.40;99.90
18041;DHT22;9145;48.588;9.250;2022-12-26T13:23:12;10.40;99.90
18041;DHT22;9145;48.588;9.250;2022-12-26T13:26:05;10.40;99.90
18041;DHT22;9145;48.588;9.250;2022-12-26T13:28:39;10.30;99.90
18041;DHT22;9145;48.588;9.250;2022-12-26T13:31:10;10.30;99.90
18041;DHT22;9145;48.588;9.250;2022-12-26T13:33:36;10.40;99.90
18041;DHT22;9145;48.588;9.250;2022-12-26T13:36:04;10.40;99.90
18041;DHT22;9145;48.588;9.250;2022-12-26T13:42:00;10.40;99.90
18041;DHT22;9145;48.588;9.250;2022-12-26T13:44:44;10.40;99.90
18041;DHT22;9145;48.588;9.250;2022-12-26T13:47:32;10.50;99.90
18041;DHT22;9145;48.588;9.250;2022-12-26T13:50:44;10.50;99.90
18041;DHT22;9145;48.588;9.250;2022-12-26T13:53:26;10.50;99.90
18041;DHT22;9145;48.588;9.250;2022-12-26T13:55:55;10.40;99.90
18041;DHT22;9145;48.588;9.250;2022-12-26T13:58:45;10.40;99.90
18041;DHT22;9145;48.588;9.250;2022-12-26T14:01:26;10.50;99.90
18041;DHT22;9145;48.588;9.250;2022-12-26T14:04:10;10.50;99.90
18041;DHT22;9145;48.588;9.250;2022-12-26T14:06:49;10.50;99.90
18041;DHT22;9145;48.588;9.250;2022-12-26T14:09:57;10.50;99.90
18041;DHT22;9145;48.588;9.250;2022-12-26T14:12:45;10.50;99.90
18041;DHT22;9145;48.588;9.250;2022-12-26T14:15:32;10.60;99.90
18041;DHT22;9145;48.588;9.250;2022-12-26T14:18:13;10.50;99.90
18041;DHT22;9145;48.588;9.250;2022-12-26T14:20:45;10.50;99.90
18041;DHT22;9145;48.588;9.250;2022-12-26T14:23:35;10.50;99.90
18041;DHT22;9145;48.588;9.250;2022-12-26T14:26:17;10.50;99.90
18041;DHT22;9145;48.588;9.250;2022-12-26T14:28:59;10.50;99.90
18041;DHT22;9145;48.588;9.250;2022-12-26T14:31:42;10.50;99.90
18041;DHT22;9145;48.588;9.250;2022-12-26T14:34:19;10.50;99.90
18041;DHT22;9145;48.588;9.250;2022-12-26T14:36:52;10.50;99.90
18041;DHT22;9145;48.588;9.250;2022-12-26T14:39:29;10.50;99.90
18041;DHT22;9145;48.588;9.250;2022-12-26T14:42:19;10.50;99.90
18041;DHT22;9145;48.588;9.250;2022-12-26T14:45:13;10.50;99.90
18041;DHT22;9145;48.588;9.250;2022-12-26T14:48:00;10.50;99.90
18041;DHT22;9145;48.588;9.250;2022-12-26T14:50:40;10.50;99.90
18041;DHT22;9145;48.588;9.250;2022-12-26T14:53:27;10.40;99.90
18041;DHT22;9145;48.588;9.250;2022-12-26T14:55:57;10.40;99.90
18041;DHT22;9145;48.588;9.250;2022-12-26T14:58:35;10.40;99.90
18041;DHT22;9145;48.588;9.250;2022-12-26T15:17:13;10.30;99.90
18041;DHT22;9145;48.588;9.250;2022-12-26T15:23:16;10.30;99.90
18041;DHT22;9145;48.588;9.250;2022-12-26T15:26:23;10.20;99.90
18041;DHT22;9145;48.588;9.250;2022-12-26T15:29:21;10.20;99.90
18041;DHT22;9145;48.588;9.250;2022-12-26T15:32:00;10.10;99.90
18041;DHT22;9145;48.588;9.250;2022-12-26T15:34:41;10.10;99.90
18041;DHT22;9145;48.588;9.250;2022-12-26T15:37:25;10.10;99.90
18041;DHT22;9145;48.588;9.250;2022-12-26T15:40:09;10.10;99.90
18041;DHT22;9145;48.588;9.250;2022-12-26T15:42:54;10.20;99.90
18041;DHT22;9145;48.588;9.250;2022-12-26T15:45:31;10.10;99.90
18041;DHT22;9145;48.588;9.250;2022-12-26T15:48:05;10.10;99.90
18041;DHT22;9145;48.588;9.250;2022-12-26T15:50:47;10.20;99.90
18041;DHT22;9145;48.588;9.250;2022-12-26T15:53:24;10.10;99.90
18041;DHT22;9145;48.588;9.250;2022-12-26T15:56:15;10.10;99.90
18041;DHT22;9145;48.588;9.250;2022-12-26T15:59:11;10.20;99.90
18041;DHT22;9145;48.588;9.250;2022-12-26T16:01:49;10.10;99.90
18041;DHT22;9145;48.588;9.250;2022-12-26T16:04:24;10.10;99.90
18041;DHT22;9145;48.588;9.250;2022-12-26T16:07:06;10.10;99.90
18041;DHT22;9145;48.588;9.250;2022-12-26T16:09:42;10.10;99.90
18041;DHT22;9145;48.588;9.250;2022-12-26T16:12:21;10.10;99.90
18041;DHT22;9145;48.588;9.250;2022-12-26T16:14:59;10.10;99.90
18041;DHT22;9145;48.588;9.250;2022-12-26T16:17:27;10.10;99.90
18041;DHT22;9145;48.588;9.250;2022-12-26T16:19:54;10.10;99.90
18041;DHT22;9145;48.588;9.250;2022-12-26T16:22:27;10.10;99.90
18041;DHT22;9145;48.588;9.250;2022-12-26T16:25:13;10.10;99.90
18041;DHT22;9145;48.588;9.250;2022-12-26T16:27:40;10.10;99.90
18041;DHT22;9145;48.588;9.250;2022-12-26T16:30:14;10.10;99.90
18041;DHT22;9145;48.588;9.250;2022-12-26T16:32:42;10.00;99.90
18041;DHT22;9145;48.588;9.250;2022-12-26T16:35:17;10.00;99.90
18041;DHT22;9145;48.588;9.250;2022-12-26T16:37:45;10.00;99.90
18041;DHT22;9145;48.588;9.250;2022-12-26T16:40:22;10.00;99.90
18041;DHT22;9145;48.588;9.250;2022-12-26T16:43:02;10.00;99.90
18041;DHT22;9145;48.588;9.250;2022-12-26T16:45:33;9.90;99.90
18041;DHT22;9145;48.588;9.250;2022-12-26T16:48:00;9.80;99.90
18041;DHT22;9145;48.588;9.250;2022-12-26T16:50:30;9.80;99.90
18041;DHT22;9145;48.588;9.250;2022-12-26T16:53:10;9.80;99.90
18041;DHT22;9145;48.588;9.250;2022-12-26T16:55:43;9.80;99.90
18041;DHT22;9145;48.588;9.250;2022-12-26T16:58:17;9.80;99.90
18041;DHT22;9145;48.588;9.250;2022-12-26T17:00:58;9.80;99.90
18041;DHT22;9145;48.588;9.250;2022-12-26T17:03:31;9.80;99.90
18041;DHT22;9145;48.588;9.250;2022-12-26T17:06:05;9.80;99.90
18041;DHT22;9145;48.588;9.250;2022-12-26T17:08:32;9.70;99.90
18041;DHT22;9145;48.588;9.250;2022-12-26T17:10:59;9.80;99.90